sensor_id;sensor_type;location;lat;lon;timestamp;pressure;altitude;pressure_sealevel;temperature;humidity
82476;BME280;72099;43.176;76.872;2023-12-29T00:00:04;89053.41;;;2.10;61.78
82476;BME280;72099;43.176;76.872;2023-12-29T00:03:05;89063.19;;;1.95;62.29
82476;BME280;72099;43.176;76.872;2023-12-29T00:06:06;89063.66;;;1.89;62.27
82476;BME280;72099;43.176;76.872;2023-12-29T00:09:07;89073.13;;;1.85;62.29
82476;BME280;72099;43.176;76.872;2023-12-29T00:12:08;89091.41;;;1.80;62.15
82476;BME280;72099;43.176;76.872;2023-12-29T00:15:09;89100.41;;;1.73;62.29
82476;BME280;72099;43.176;76.872;2023-12-29T00:18:10;89105.59;;;1.73;62.34
82476;BME280;72099;43.176;76.872;2023-12-29T00:21:11;89101.91;;;1.66;62.58
82476;BME280;72099;43.176;76.872;2023-12-29T00:24:12;89110.31;;;1.71;63.08
82476;BME280;72099;43.176;76.872;2023-12-29T00:27:13;89122.03;;;1.69;63.29
82476;BME280;72099;43.176;76.872;2023-12-29T00:30:14;89121.16;;;1.73;63.57
82476;BME280;72099;43.176;76.872;2023-12-29T00:33:15;89126.03;;;1.75;63.68
82476;BME280;72099;43.176;76.872;2023-12-29T00:36:17;89113.97;;;1.70;64.21
82476;BME280;72099;43.176;76.872;2023-12-29T00:39:18;89113.69;;;1.72;64.13
82476;BME280;72099;43.176;76.872;2023-12-29T00:42:18;89110.63;;;1.61;64.72
82476;BME280;72099;43.176;76.872;2023-12-29T00:45:19;89116.84;;;1.52;64.96
82476;BME280;72099;43.176;76.872;2023-12-29T00:48:21;89129.78;;;1.43;65.44
82476;BME280;72099;43.176;76.872;2023-12-29T00:51:22;89144.41;;;1.39;65.92
82476;BME280;72099;43.176;76.872;2023-12-29T00:54:23;89142.28;;;1.32;65.51
82476;BME280;72099;43.176;76.872;2023-12-29T00:57:24;89141.34;;;1.37;65.65
82476;BME280;72099;43.176;76.872;2023-12-29T01:00:25;89163.75;;;1.41;65.38
82476;BME280;72099;43.176;76.872;2023-12-29T01:03:25;89163.94;;;1.45;65.54
82476;BME280;72099;43.176;76.872;2023-12-29T01:06:26;89173.25;;;1.55;64.97
82476;BME280;72099;43.176;76.872;2023-12-29T01:09:27;89187.75;;;1.64;64.14
82476;BME280;72099;43.176;76.872;2023-12-29T01:12:28;89192.03;;;1.77;64.75
82476;BME280;72099;43.176;76.872;2023-12-29T01:15:29;89198.94;;;1.91;64.41
82476;BME280;72099;43.176;76.872;2023-12-29T01:18:31;89184.13;;;1.91;64.29
82476;BME280;72099;43.176;76.872;2023-12-29T01:21:32;89202.47;;;2.12;63.76
82476;BME280;72099;43.176;76.872;2023-12-29T01:24:34;89214.06;;;2.23;63.66
82476;BME280;72099;43.176;76.872;2023-12-29T01:27:35;89212.25;;;2.24;63.53
82476;BME280;72099;43.176;76.872;2023-12-29T01:30:36;89236.63;;;2.14;64.08
82476;BME280;72099;43.176;76.872;2023-12-29T01:33:36;89237.84;;;1.99;64.64
82476;BME280;72099;43.176;76.872;2023-12-29T01:36:37;89234.28;;;1.78;65.68
82476;BME280;72099;43.176;76.872;2023-12-29T01:39:38;89174.69;;;1.21;66.53
82476;BME280;72099;43.176;76.872;2023-12-29T01:42:40;89224.72;;;1.30;67.53
82476;BME280;72099;43.176;76.872;2023-12-29T01:45:41;89249.06;;;1.29;68.00
82476;BME280;72099;43.176;76.872;2023-12-29T01:49:15;89268.09;;;1.25;68.46
82476;BME280;72099;43.176;76.872;2023-12-29T01:52:20;89278.91;;;1.27;68.42
82476;BME280;72099;43.176;76.872;2023-12-29T01:55:21;89275.72;;;1.30;68.05
82476;BME280;72099;43.176;76.872;2023-12-29T01:58:22;89279.88;;;1.39;68.20
82476;BME280;72099;43.176;76.872;2023-12-29T02:01:23;89279.47;;;1.46;67.73
82476;BME280;72099;43.176;76.872;2023-12-29T02:04:25;89278.88;;;1.49;67.88
82476;BME280;72099;43.176;76.872;2023-12-29T02:07:26;89295.75;;;1.77;67.19
82476;BME280;72099;43.176;76.872;2023-12-29T02:10:31;89299.50;;;2.11;65.55
82476;BME280;72099;43.176;76.872;2023-12-29T02:13:32;89304.59;;;2.42;64.17
82476;BME280;72099;43.176;76.872;2023-12-29T02:19:58;89295.44;;;2.96;61.83
82476;BME280;72099;43.176;76.872;2023-12-29T02:22:59;89295.28;;;3.02;61.86
82476;BME280;72099;43.176;76.872;2023-12-29T02:26:05;89282.59;;;3.00;61.75
82476;BME280;72099;43.176;76.872;2023-12-29T02:29:10;89287.03;;;3.00;61.17
82476;BME280;72099;43.176;76.872;2023-12-29T02:32:16;89279.06;;;3.05;60.71
82476;BME280;72099;43.176;76.872;2023-12-29T02:35:23;89281.97;;;3.03;61.04
82476;BME280;72099;43.176;76.872;2023-12-29T02:38:25;89273.56;;;3.06;60.70
82476;BME280;72099;43.176;76.872;2023-12-29T02:41:28;89273.41;;;3.11;60.43
82476;BME280;72099;43.176;76.872;2023-12-29T02:44:29;89271.41;;;3.17;60.21
82476;BME280;72099;43.176;76.872;2023-12-29T02:47:30;89270.63;;;3.25;59.48
82476;BME280;72099;43.176;76.872;2023-12-29T02:50:31;89272.84;;;3.52;59.11
82476;BME280;72099;43.176;76.872;2023-12-29T02:53:32;89272.19;;;3.64;58.85
82476;BME280;72099;43.176;76.872;2023-12-29T02:56:33;89271.38;;;3.81;57.40
82476;BME280;72099;43.176;76.872;2023-12-29T02:59:34;89259.47;;;4.30;55.46
82476;BME280;72099;43.176;76.872;2023-12-29T03:02:37;89248.16;;;4.89;52.47
82476;BME280;72099;43.176;76.872;2023-12-29T03:05:38;89246.50;;;5.50;50.36
82476;BME280;72099;43.176;76.872;2023-12-29T03:08:39;89197.78;;;6.00;47.73
82476;BME280;72099;43.176;76.872;2023-12-29T03:11:40;89194.22;;;6.72;45.48
82476;BME280;72099;43.176;76.872;2023-12-29T03:14:41;89231.47;;;7.53;42.82
82476;BME280;72099;43.176;76.872;2023-12-29T03:17:41;89229.28;;;8.03;41.66
82476;BME280;72099;43.176;76.872;2023-12-29T03:20:42;89217.19;;;8.45;39.54
82476;BME280;72099;43.176;76.872;2023-12-29T03:23:43;89227.25;;;8.98;37.68
82476;BME280;72099;43.176;76.872;2023-12-29T03:26:44;89238.31;;;9.26;36.97
82476;BME280;72099;43.176;76.872;2023-12-29T03:29:45;89248.94;;;9.53;36.37
82476;BME280;72099;43.176;76.872;2023-12-29T03:32:46;89245.97;;;9.54;36.97
82476;BME280;72099;43.176;76.872;2023-12-29T03:35:47;89249.34;;;9.35;37.69
82476;BME280;72099;43.176;76.872;2023-12-29T03:38:47;89259.28;;;9.07;38.92
82476;BME280;72099;43.176;76.872;2023-12-29T03:41:48;89276.56;;;8.73;40.46
82476;BME280;72099;43.176;76.872;2023-12-29T03:44:49;89294.97;;;8.41;41.30
82476;BME280;72099;43.176;76.872;2023-12-29T03:47:50;89311.50;;;8.14;42.54
82476;BME280;72099;43.176;76.872;2023-12-29T03:50:51;89323.72;;;7.94;42.73
82476;BME280;72099;43.176;76.872;2023-12-29T03:53:51;89333.75;;;7.76;43.38
82476;BME280;72099;43.176;76.872;2023-12-29T03:56:52;89348.81;;;7.67;45.46
82476;BME280;72099;43.176;76.872;2023-12-29T03:59:53;89328.63;;;7.52;44.81
82476;BME280;72099;43.176;76.872;2023-12-29T04:02:54;89337.91;;;7.49;46.76
82476;BME280;72099;43.176;76.872;2023-12-29T04:05:55;89316.75;;;7.42;47.49
82476;BME280;72099;43.176;76.872;2023-12-29T04:08:57;89341.72;;;7.67;48.26
82476;BME280;72099;43.176;76.872;2023-12-29T04:11:57;89348.41;;;7.65;48.04
82476;BME280;72099;43.176;76.872;2023-12-29T04:14:58;89343.00;;;7.58;49.11
82476;BME280;72099;43.176;76.872;2023-12-29T04:17:59;89358.44;;;7.63;50.25
82476;BME280;72099;43.176;76.872;2023-12-29T04:21:00;89359.50;;;7.74;50.12
82476;BME280;72099;43.176;76.872;2023-12-29T04:24:01;89348.56;;;7.84;49.55
82476;BME280;72099;43.176;76.872;2023-12-29T04:27:02;89389.41;;;8.17;49.26
82476;BME280;72099;43.176;76.872;2023-12-29T04:30:04;89393.47;;;8.30;49.89
82476;BME280;72099;43.176;76.872;2023-12-29T04:33:05;89390.31;;;8.37;49.56
82476;BME280;72099;43.176;76.872;2023-12-29T04:36:06;89398.03;;;8.33;49.37
82476;BME280;72099;43.176;76.872;2023-12-29T04:39:07;89409.00;;;8.35;47.97
82476;BME280;72099;43.176;76.872;2023-12-29T04:42:10;89399.72;;;8.10;47.47
82476;BME280;72099;43.176;76.872;2023-12-29T04:45:12;89411.97;;;7.93;47.49
82476;BME280;72099;43.176;76.872;2023-12-29T04:48:13;89424.03;;;7.82;48.17
82476;BME280;72099;43.176;76.872;2023-12-29T04:51:14;89426.13;;;8.05;48.41
82476;BME280;72099;43.176;76.872;2023-12-29T04:54:14;89444.56;;;8.08;47.41
82476;BME280;72099;43.176;76.872;2023-12-29T04:57:16;89456.91;;;8.08;46.95
82476;BME280;72099;43.176;76.872;2023-12-29T05:00:17;89465.31;;;8.01;47.02
82476;BME280;72099;43.176;76.872;2023-12-29T05:03:18;89474.06;;;7.93;46.11
82476;BME280;72099;43.176;76.872;2023-12-29T05:06:18;89481.16;;;7.92;45.84
82476;BME280;72099;43.176;76.872;2023-12-29T05:09:19;89500.16;;;7.89;46.34
82476;BME280;72099;43.176;76.872;2023-12-29T05:12:20;89501.69;;;7.78;45.02
82476;BME280;72099;43.176;76.872;2023-12-29T05:15:21;89515.69;;;7.70;45.62
82476;BME280;72099;43.176;76.872;2023-12-29T05:18:22;89526.72;;;7.51;44.92
82476;BME280;72099;43.176;76.872;2023-12-29T05:21:23;89532.94;;;7.47;46.10
82476;BME280;72099;43.176;76.872;2023-12-29T05:24:24;89537.84;;;7.48;45.60
82476;BME280;72099;43.176;76.872;2023-12-29T05:27:26;89570.09;;;7.40;45.23
82476;BME280;72099;43.176;76.872;2023-12-29T05:30:27;89587.44;;;7.20;46.83
82476;BME280;72099;43.176;76.872;2023-12-29T05:33:32;89590.56;;;7.14;46.88
82476;BME280;72099;43.176;76.872;2023-12-29T05:36:36;89584.13;;;6.99;46.97
82476;BME280;72099;43.176;76.872;2023-12-29T05:39:37;89611.31;;;6.86;47.05
82476;BME280;72099;43.176;76.872;2023-12-29T05:42:38;89621.28;;;6.71;47.75
82476;BME280;72099;43.176;76.872;2023-12-29T05:45:39;89618.25;;;6.69;48.11
82476;BME280;72099;43.176;76.872;2023-12-29T05:49:01;89631.53;;;6.76;48.05
82476;BME280;72099;43.176;76.872;2023-12-29T05:52:02;89635.50;;;6.83;47.41
82476;BME280;72099;43.176;76.872;2023-12-29T05:55:03;89644.56;;;6.97;47.57
82476;BME280;72099;43.176;76.872;2023-12-29T05:58:04;89641.88;;;7.06;47.42
82476;BME280;72099;43.176;76.872;2023-12-29T06:01:05;89650.84;;;7.17;47.71
82476;BME280;72099;43.176;76.872;2023-12-29T06:04:06;89641.94;;;7.30;47.26
82476;BME280;72099;43.176;76.872;2023-12-29T06:07:07;89656.47;;;7.52;46.22
82476;BME280;72099;43.176;76.872;2023-12-29T06:10:08;89666.09;;;7.73;45.30
82476;BME280;72099;43.176;76.872;2023-12-29T06:13:09;89671.97;;;7.94;44.61
82476;BME280;72099;43.176;76.872;2023-12-29T06:16:17;89673.06;;;8.17;43.91
82476;BME280;72099;43.176;76.872;2023-12-29T06:19:18;89654.53;;;8.22;43.49
82476;BME280;72099;43.176;76.872;2023-12-29T06:22:19;89680.16;;;8.53;44.04
82476;BME280;72099;43.176;76.872;2023-12-29T06:25:20;89692.34;;;8.74;43.52
82476;BME280;72099;43.176;76.872;2023-12-29T06:28:21;89695.91;;;8.81;43.72
82476;BME280;72099;43.176;76.872;2023-12-29T06:31:22;89719.81;;;8.92;43.60
82476;BME280;72099;43.176;76.872;2023-12-29T06:34:23;89731.19;;;8.96;43.37
82476;BME280;72099;43.176;76.872;2023-12-29T06:37:24;89734.91;;;8.95;43.52
82476;BME280;72099;43.176;76.872;2023-12-29T06:40:24;89742.44;;;8.84;45.12
82476;BME280;72099;43.176;76.872;2023-12-29T06:43:25;89759.75;;;8.73;45.23
82476;BME280;72099;43.176;76.872;2023-12-29T06:46:26;89767.22;;;8.47;45.97
82476;BME280;72099;43.176;76.872;2023-12-29T06:49:27;89779.94;;;8.24;46.00
82476;BME280;72099;43.176;76.872;2023-12-29T06:52:28;89799.84;;;7.92;48.23
82476;BME280;72099;43.176;76.872;2023-12-29T06:55:34;89831.78;;;7.73;49.00
82476;BME280;72099;43.176;76.872;2023-12-29T06:58:35;89845.09;;;7.26;50.41
82476;BME280;72099;43.176;76.872;2023-12-29T07:01:38;89867.50;;;6.86;51.72
82476;BME280;72099;43.176;76.872;2023-12-29T07:04:41;89888.41;;;6.56;52.31
82476;BME280;72099;43.176;76.872;2023-12-29T07:07:43;89912.31;;;6.29;53.06
82476;BME280;72099;43.176;76.872;2023-12-29T07:10:44;89920.03;;;6.16;53.71
82476;BME280;72099;43.176;76.872;2023-12-29T07:13:45;89921.88;;;6.16;53.45
82476;BME280;72099;43.176;76.872;2023-12-29T07:16:46;89932.19;;;6.12;53.67
82476;BME280;72099;43.176;76.872;2023-12-29T07:19:46;89941.81;;;6.12;53.64
82476;BME280;72099;43.176;76.872;2023-12-29T07:22:47;89961.34;;;6.14;53.39
82476;BME280;72099;43.176;76.872;2023-12-29T07:25:48;89955.00;;;6.33;52.76
82476;BME280;72099;43.176;76.872;2023-12-29T07:28:53;89963.75;;;6.45;52.45
82476;BME280;72099;43.176;76.872;2023-12-29T07:31:54;89954.59;;;6.69;51.65
82476;BME280;72099;43.176;76.872;2023-12-29T07:34:55;89952.53;;;6.92;51.57
82476;BME280;72099;43.176;76.872;2023-12-29T07:37:58;89964.72;;;7.17;50.94
82476;BME280;72099;43.176;76.872;2023-12-29T07:41:00;89964.25;;;7.15;51.99
82476;BME280;72099;43.176;76.872;2023-12-29T07:44:01;89961.09;;;7.30;51.14
82476;BME280;72099;43.176;76.872;2023-12-29T07:47:02;89964.00;;;7.29;50.65
82476;BME280;72099;43.176;76.872;2023-12-29T07:50:04;89957.03;;;7.12;51.41
82476;BME280;72099;43.176;76.872;2023-12-29T07:53:06;89961.13;;;7.22;51.80
82476;BME280;72099;43.176;76.872;2023-12-29T07:56:07;89967.88;;;7.52;52.16
82476;BME280;72099;43.176;76.872;2023-12-29T07:59:08;89965.59;;;7.92;52.30
82476;BME280;72099;43.176;76.872;2023-12-29T08:02:09;89977.03;;;7.88;50.91
82476;BME280;72099;43.176;76.872;2023-12-29T08:05:09;89955.63;;;7.44;52.20
82476;BME280;72099;43.176;76.872;2023-12-29T08:08:10;89974.28;;;7.63;52.73
82476;BME280;72099;43.176;76.872;2023-12-29T08:11:15;89974.28;;;7.63;52.49
82476;BME280;72099;43.176;76.872;2023-12-29T08:14:17;89971.91;;;7.50;51.67
82476;BME280;72099;43.176;76.872;2023-12-29T08:17:17;89982.41;;;7.41;51.39
82476;BME280;72099;43.176;76.872;2023-12-29T08:20:18;89967.63;;;7.16;52.30
82476;BME280;72099;43.176;76.872;2023-12-29T08:23:21;89990.56;;;7.10;52.35
82476;BME280;72099;43.176;76.872;2023-12-29T08:26:22;89987.19;;;7.09;52.43
82476;BME280;72099;43.176;76.872;2023-12-29T08:29:23;89990.16;;;6.99;53.61
82476;BME280;72099;43.176;76.872;2023-12-29T08:32:26;89976.66;;;6.89;53.80
82476;BME280;72099;43.176;76.872;2023-12-29T08:35:26;89984.56;;;7.18;54.29
82476;BME280;72099;43.176;76.872;2023-12-29T08:38:27;89995.13;;;7.30;54.41
82476;BME280;72099;43.176;76.872;2023-12-29T08:41:28;89992.75;;;7.08;54.38
82476;BME280;72099;43.176;76.872;2023-12-29T08:44:29;89997.75;;;6.84;54.81
82476;BME280;72099;43.176;76.872;2023-12-29T08:47:30;89980.94;;;6.55;55.24
82476;BME280;72099;43.176;76.872;2023-12-29T08:50:31;89994.50;;;6.40;56.46
82476;BME280;72099;43.176;76.872;2023-12-29T08:53:32;90001.44;;;6.27;56.67
82476;BME280;72099;43.176;76.872;2023-12-29T08:56:35;90012.31;;;6.38;57.48
82476;BME280;72099;43.176;76.872;2023-12-29T08:59:36;90004.00;;;6.53;56.94
82476;BME280;72099;43.176;76.872;2023-12-29T09:02:38;90008.28;;;6.49;56.86
82476;BME280;72099;43.176;76.872;2023-12-29T09:05:39;90001.13;;;6.20;57.22
82476;BME280;72099;43.176;76.872;2023-12-29T09:08:40;90028.16;;;5.98;58.36
82476;BME280;72099;43.176;76.872;2023-12-29T09:11:43;90025.97;;;5.83;58.79
82476;BME280;72099;43.176;76.872;2023-12-29T09:14:44;90036.69;;;5.73;59.06
82476;BME280;72099;43.176;76.872;2023-12-29T09:17:45;90034.41;;;5.62;59.60
82476;BME280;72099;43.176;76.872;2023-12-29T09:20:46;90035.28;;;5.58;59.92
82476;BME280;72099;43.176;76.872;2023-12-29T09:23:48;90042.06;;;5.50;59.93
82476;BME280;72099;43.176;76.872;2023-12-29T09:26:49;90052.16;;;5.43;60.90
82476;BME280;72099;43.176;76.872;2023-12-29T09:29:51;90052.41;;;5.33;61.10
82476;BME280;72099;43.176;76.872;2023-12-29T09:32:52;90068.22;;;5.28;61.56
82476;BME280;72099;43.176;76.872;2023-12-29T09:35:53;90067.28;;;5.24;61.93
82476;BME280;72099;43.176;76.872;2023-12-29T09:38:53;90080.44;;;5.10;62.22
82476;BME280;72099;43.176;76.872;2023-12-29T09:41:57;90079.31;;;5.02;nan
82476;BME280;72099;43.176;76.872;2023-12-29T09:45:02;90105.38;;;5.02;63.02
82476;BME280;72099;43.176;76.872;2023-12-29T09:48:07;90105.84;;;5.04;63.16
82476;BME280;72099;43.176;76.872;2023-12-29T09:51:10;90109.81;;;5.02;62.87
82476;BME280;72099;43.176;76.872;2023-12-29T09:54:12;90120.25;;;5.02;63.34
82476;BME280;72099;43.176;76.872;2023-12-29T09:57:14;90121.00;;;5.02;63.55
82476;BME280;72099;43.176;76.872;2023-12-29T10:00:16;90122.31;;;4.83;64.03
82476;BME280;72099;43.176;76.872;2023-12-29T10:03:17;90125.44;;;4.71;64.62
82476;BME280;72099;43.176;76.872;2023-12-29T10:06:24;90133.63;;;4.56;65.64
82476;BME280;72099;43.176;76.872;2023-12-29T10:09:25;90140.59;;;4.47;66.19
82476;BME280;72099;43.176;76.872;2023-12-29T10:12:28;90149.56;;;4.40;66.45
82476;BME280;72099;43.176;76.872;2023-12-29T10:15:40;90161.66;;;4.36;67.40
82476;BME280;72099;43.176;76.872;2023-12-29T10:22:21;90159.38;;;4.21;68.32
82476;BME280;72099;43.176;76.872;2023-12-29T10:25:23;90168.16;;;4.11;68.29
82476;BME280;72099;43.176;76.872;2023-12-29T10:28:24;90168.66;;;4.00;68.80
82476;BME280;72099;43.176;76.872;2023-12-29T10:31:25;90176.41;;;3.91;69.21
82476;BME280;72099;43.176;76.872;2023-12-29T10:34:26;90176.31;;;3.82;70.02
82476;BME280;72099;43.176;76.872;2023-12-29T10:37:30;90191.22;;;3.77;70.51
82476;BME280;72099;43.176;76.872;2023-12-29T10:40:30;90180.56;;;3.65;70.60
82476;BME280;72099;43.176;76.872;2023-12-29T10:43:32;90190.88;;;3.56;72.06
82476;BME280;72099;43.176;76.872;2023-12-29T10:46:32;90202.91;;;3.52;71.05
82476;BME280;72099;43.176;76.872;2023-12-29T10:49:34;90200.00;;;3.40;71.80
82476;BME280;72099;43.176;76.872;2023-12-29T10:52:35;90217.16;;;3.41;72.22
82476;BME280;72099;43.176;76.872;2023-12-29T10:55:37;90224.66;;;3.42;72.46
82476;BME280;72099;43.176;76.872;2023-12-29T10:58:38;90229.56;;;3.44;72.50
82476;BME280;72099;43.176;76.872;2023-12-29T11:01:40;90237.19;;;3.40;72.90
82476;BME280;72099;43.176;76.872;2023-12-29T11:04:42;90243.22;;;3.36;73.38
82476;BME280;72099;43.176;76.872;2023-12-29T11:07:43;90258.63;;;3.32;73.91
82476;BME280;72099;43.176;76.872;2023-12-29T11:10:44;90258.00;;;3.21;74.18
82476;BME280;72099;43.176;76.872;2023-12-29T11:13:49;90265.19;;;3.11;74.67
82476;BME280;72099;43.176;76.872;2023-12-29T11:16:51;90259.41;;;3.00;75.41
82476;BME280;72099;43.176;76.872;2023-12-29T11:19:58;90273.66;;;2.84;75.73
82476;BME280;72099;43.176;76.872;2023-12-29T11:22:59;90263.78;;;2.67;76.33
82476;BME280;72099;43.176;76.872;2023-12-29T11:26:02;90270.59;;;2.63;76.37
82476;BME280;72099;43.176;76.872;2023-12-29T11:42:30;90320.09;;;1.81;78.47
82476;BME280;72099;43.176;76.872;2023-12-29T11:45:33;90323.97;;;1.55;78.76
82476;BME280;72099;43.176;76.872;2023-12-29T11:52:11;90347.84;;;1.23;79.48
82476;BME280;72099;43.176;76.872;2023-12-29T11:55:13;90359.53;;;1.15;79.58
82476;BME280;72099;43.176;76.872;2023-12-29T11:58:25;90356.72;;;1.11;79.82
82476;BME280;72099;43.176;76.872;2023-12-29T12:01:34;90369.94;;;1.10;79.65
82476;BME280;72099;43.176;76.872;2023-12-29T12:10:46;90403.78;;;0.84;80.33
82476;BME280;72099;43.176;76.872;2023-12-29T12:13:47;90414.69;;;0.76;80.97
82476;BME280;72099;43.176;76.872;2023-12-29T12:16:49;90422.25;;;0.68;80.73
82476;BME280;72099;43.176;76.872;2023-12-29T12:19:52;90419.66;;;0.63;81.16
82476;BME280;72099;43.176;76.872;2023-12-29T12:22:58;90422.78;;;0.59;81.42
82476;BME280;72099;43.176;76.872;2023-12-29T12:26:01;90426.97;;;0.55;81.23
82476;BME280;72099;43.176;76.872;2023-12-29T12:29:08;90432.91;;;0.51;81.23
82476;BME280;72099;43.176;76.872;2023-12-29T12:32:09;90439.91;;;0.50;81.79
82476;BME280;72099;43.176;76.872;2023-12-29T12:35:14;90438.84;;;0.51;81.73
82476;BME280;72099;43.176;76.872;2023-12-29T12:38:18;90451.56;;;0.53;81.95
82476;BME280;72099;43.176;76.872;2023-12-29T12:41:23;90453.09;;;0.54;81.39
82476;BME280;72099;43.176;76.872;2023-12-29T12:44:24;90459.06;;;0.54;81.46
82476;BME280;72099;43.176;76.872;2023-12-29T12:47:52;90454.13;;;0.48;81.93
82476;BME280;72099;43.176;76.872;2023-12-29T12:50:54;90454.91;;;0.48;82.21
82476;BME280;72099;43.176;76.872;2023-12-29T12:53:57;90462.69;;;0.48;81.60
82476;BME280;72099;43.176;76.872;2023-12-29T12:56:58;90458.84;;;0.41;82.11
82476;BME280;72099;43.176;76.872;2023-12-29T13:00:00;90468.38;;;0.45;81.63
82476;BME280;72099;43.176;76.872;2023-12-29T13:03:02;90468.16;;;0.42;81.95
82476;BME280;72099;43.176;76.872;2023-12-29T13:06:03;90485.75;;;0.40;82.10
82476;BME280;72099;43.176;76.872;2023-12-29T13:09:23;90477.72;;;0.41;82.05
82476;BME280;72099;43.176;76.872;2023-12-29T13:12:24;90481.09;;;0.42;82.45
82476;BME280;72099;43.176;76.872;2023-12-29T13:15:25;90472.53;;;0.36;82.00
82476;BME280;72099;43.176;76.872;2023-12-29T13:18:29;90499.41;;;0.50;81.82
82476;BME280;72099;43.176;76.872;2023-12-29T13:21:32;90501.75;;;0.47;81.98
82476;BME280;72099;43.176;76.872;2023-12-29T13:24:32;90512.66;;;0.44;81.89
82476;BME280;72099;43.176;76.872;2023-12-29T13:27:45;90519.63;;;0.43;82.30
82476;BME280;72099;43.176;76.872;2023-12-29T13:30:47;90530.13;;;0.87;84.79
82476;BME280;72099;43.176;76.872;2023-12-29T13:37:01;90542.22;;;2.35;85.37
82476;BME280;72099;43.176;76.872;2023-12-29T13:43:08;90559.03;;;3.19;83.23
82476;BME280;72099;43.176;76.872;2023-12-29T13:46:12;90577.25;;;3.38;80.97
82476;BME280;72099;43.176;76.872;2023-12-29T13:49:14;90584.72;;;3.21;80.30
82476;BME280;72099;43.176;76.872;2023-12-29T13:52:16;90584.84;;;2.87;81.03
82476;BME280;72099;43.176;76.872;2023-12-29T13:55:24;90599.53;;;2.96;80.26
82476;BME280;72099;43.176;76.872;2023-12-29T13:58:28;90600.81;;;2.99;80.90
82476;BME280;72099;43.176;76.872;2023-12-29T14:01:35;90596.00;;;2.87;79.97
82476;BME280;72099;43.176;76.872;2023-12-29T14:04:36;90619.00;;;2.99;79.47
82476;BME280;72099;43.176;76.872;2023-12-29T14:07:44;90638.22;;;3.27;78.85
82476;BME280;72099;43.176;76.872;2023-12-29T14:10:46;90627.56;;;3.52;78.12
82476;BME280;72099;43.176;76.872;2023-12-29T14:13:47;90642.75;;;3.64;76.00
82476;BME280;72099;43.176;76.872;2023-12-29T14:16:53;90643.66;;;3.54;75.70
82476;BME280;72099;43.176;76.872;2023-12-29T14:19:54;90642.97;;;3.68;76.15
82476;BME280;72099;43.176;76.872;2023-12-29T14:23:03;90643.00;;;3.87;74.85
82476;BME280;72099;43.176;76.872;2023-12-29T14:26:04;90648.78;;;4.02;74.20
82476;BME280;72099;43.176;76.872;2023-12-29T14:29:06;90646.06;;;3.94;74.37
82476;BME280;72099;43.176;76.872;2023-12-29T14:32:07;90649.75;;;3.88;73.94
82476;BME280;72099;43.176;76.872;2023-12-29T14:35:08;90652.38;;;3.64;73.65
82476;BME280;72099;43.176;76.872;2023-12-29T14:38:11;90645.78;;;3.71;73.96
82476;BME280;72099;43.176;76.872;2023-12-29T14:41:17;90643.84;;;3.82;73.18
82476;BME280;72099;43.176;76.872;2023-12-29T14:44:18;90653.41;;;3.87;72.91
82476;BME280;72099;43.176;76.872;2023-12-29T14:47:18;90652.63;;;3.86;72.68
82476;BME280;72099;43.176;76.872;2023-12-29T14:50:20;90650.81;;;3.87;72.66
82476;BME280;72099;43.176;76.872;2023-12-29T14:53:21;90655.44;;;3.90;72.26
82476;BME280;72099;43.176;76.872;2023-12-29T14:56:22;90651.38;;;3.83;71.74
82476;BME280;72099;43.176;76.872;2023-12-29T14:59:23;90659.38;;;3.87;72.16
82476;BME280;72099;43.176;76.872;2023-12-29T15:02:23;90664.56;;;3.92;71.55
82476;BME280;72099;43.176;76.872;2023-12-29T15:05:24;90664.97;;;3.99;71.06
82476;BME280;72099;43.176;76.872;2023-12-29T15:11:36;90679.34;;;4.15;70.50
82476;BME280;72099;43.176;76.872;2023-12-29T15:14:37;90685.59;;;4.14;70.09
82476;BME280;72099;43.176;76.872;2023-12-29T15:17:38;90684.16;;;3.84;70.45
82476;BME280;72099;43.176;76.872;2023-12-29T15:20:39;90696.91;;;3.33;71.28
82476;BME280;72099;43.176;76.872;2023-12-29T15:23:40;90699.69;;;2.84;72.28
82476;BME280;72099;43.176;76.872;2023-12-29T15:26:41;90698.19;;;2.33;73.57
82476;BME280;72099;43.176;76.872;2023-12-29T15:29:41;90710.88;;;1.96;74.24
82476;BME280;72099;43.176;76.872;2023-12-29T15:32:42;90713.81;;;1.69;74.73
82476;BME280;72099;43.176;76.872;2023-12-29T15:35:43;90711.78;;;1.51;75.92
82476;BME280;72099;43.176;76.872;2023-12-29T15:38:47;90706.88;;;1.49;75.96
